createdAt,value
2023-03-14T00:00:41.003Z,1.83
2023-03-14T00:01:46.246Z,1.92
2023-03-14T00:02:53.776Z,1.73
2023-03-14T00:03:56.968Z,1.73
2023-03-14T00:04:59.946Z,1.67
2023-03-14T00:06:07.123Z,1.52
2023-03-14T00:07:12.831Z,2.10
2023-03-14T00:08:17.878Z,1.80
2023-03-14T00:09:21.103Z,1.23
2023-03-14T00:10:24.013Z,1.90
2023-03-14T00:11:27.514Z,1.65
2023-03-14T00:12:30.389Z,1.77
2023-03-14T00:13:33.387Z,2.05
2023-03-14T00:14:36.297Z,1.37
2023-03-14T00:15:39.309Z,1.87
2023-03-14T00:16:42.412Z,2.08
2023-03-14T00:17:45.739Z,1.62
2023-03-14T00:18:49.250Z,2.15
2023-03-14T00:19:55.292Z,2.28
2023-03-14T00:21:00.635Z,1.70
2023-03-14T00:22:03.665Z,1.48
2023-03-14T00:23:06.693Z,1.37
2023-03-14T00:24:10.398Z,1.52
2023-03-14T00:25:13.968Z,1.20
2023-03-14T00:26:19.676Z,1.67
2023-03-14T00:27:22.867Z,1.40
2023-03-14T00:28:25.960Z,2.10
2023-03-14T00:29:29.074Z,1.58
2023-03-14T00:30:32.131Z,1.40
2023-03-14T00:31:37.469Z,1.30
2023-03-14T00:32:40.474Z,1.55
2023-03-14T00:33:44.629Z,2.03
2023-03-14T00:34:47.697Z,2.10
2023-03-14T00:36:02.361Z,1.98
2023-03-14T00:37:05.382Z,1.70
2023-03-14T00:38:08.447Z,1.90
2023-03-14T00:39:11.621Z,1.40
2023-03-14T00:40:14.755Z,1.30
2023-03-14T00:41:20.563Z,1.50
2023-03-14T00:42:23.756Z,1.30
2023-03-14T00:43:26.998Z,1.60
2023-03-14T00:44:30.114Z,1.27
2023-03-14T00:45:32.997Z,1.70
2023-03-14T00:46:36.159Z,1.73
2023-03-14T00:47:39.043Z,2.30
2023-03-14T00:48:42.150Z,1.65
2023-03-14T00:49:45.052Z,1.85
2023-03-14T00:50:48.467Z,1.77
2023-03-14T00:51:52.864Z,2.15
2023-03-14T00:52:55.870Z,1.80
2023-03-14T00:54:02.111Z,1.70
2023-03-14T00:55:05.690Z,1.70
2023-03-14T00:56:11.969Z,1.87
2023-03-14T00:57:14.969Z,1.58
2023-03-14T00:58:19.265Z,1.25
2023-03-14T00:59:22.272Z,2.00
2023-03-14T01:00:25.234Z,1.50
2023-03-14T01:01:28.587Z,1.50
2023-03-14T01:02:31.636Z,1.30
2023-03-14T01:03:34.847Z,1.67
2023-03-14T01:04:38.972Z,1.87
2023-03-14T01:05:42.338Z,1.80
2023-03-14T01:06:45.611Z,1.73
2023-03-14T01:07:48.571Z,1.98
2023-03-14T01:08:52.400Z,1.45
2023-03-14T01:09:55.408Z,1.83
2023-03-14T01:10:58.527Z,1.58
2023-03-14T01:12:01.542Z,1.40
2023-03-14T01:13:04.483Z,1.42
2023-03-14T01:14:07.396Z,2.00
2023-03-14T01:15:10.912Z,1.70
2023-03-14T01:16:15.320Z,1.50
2023-03-14T01:17:18.396Z,1.55
2023-03-14T01:18:21.820Z,1.35
2023-03-14T01:19:24.846Z,1.92
2023-03-14T01:20:28.004Z,2.50
2023-03-14T01:21:36.483Z,1.90
2023-03-14T01:22:41.046Z,1.83
2023-03-14T01:23:45.258Z,1.50
2023-03-14T01:24:48.208Z,1.58
2023-03-14T01:25:51.179Z,1.80
2023-03-14T01:26:54.414Z,1.58
2023-03-14T01:27:57.598Z,1.85
2023-03-14T01:29:01.174Z,1.37
2023-03-14T01:30:05.635Z,1.73
2023-03-14T01:31:11.433Z,1.77
2023-03-14T01:32:14.605Z,2.25
2023-03-14T01:33:17.701Z,1.67
2023-03-14T01:34:20.639Z,1.92
2023-03-14T01:35:23.489Z,1.48
2023-03-14T01:36:26.720Z,2.12
2023-03-14T01:37:29.778Z,2.20
2023-03-14T01:38:37.620Z,1.50
2023-03-14T01:39:40.565Z,1.48
2023-03-14T01:40:46.683Z,1.48
2023-03-14T01:41:50.060Z,1.27
2023-03-14T01:43:07.587Z,1.83
2023-03-14T01:44:14.191Z,1.50
2023-03-14T01:45:54.285Z,1.55
2023-03-14T01:46:57.608Z,1.30
2023-03-14T01:48:00.497Z,1.92
2023-03-14T01:49:22.456Z,1.35
2023-03-14T01:50:25.745Z,1.58
2023-03-14T01:51:32.037Z,1.87
2023-03-14T01:52:47.673Z,1.70
2023-03-14T01:53:54.660Z,1.20
2023-03-14T01:55:25.078Z,1.30
2023-03-14T01:56:28.402Z,1.15
2023-03-14T01:57:38.287Z,1.35
2023-03-14T01:58:45.621Z,0.80
2023-03-14T02:00:05.194Z,1.80
2023-03-14T02:01:10.595Z,1.62
2023-03-14T02:02:14.474Z,1.75
2023-03-14T02:03:20.047Z,1.20
2023-03-14T02:04:23.221Z,2.03
2023-03-14T02:05:36.067Z,1.10
2023-03-14T02:07:13.905Z,1.02
2023-03-14T02:08:20.954Z,1.58
2023-03-14T02:09:24.415Z,2.45
2023-03-14T02:10:34.420Z,1.40
2023-03-14T02:11:37.660Z,1.17
2023-03-14T02:12:40.940Z,1.40
2023-03-14T02:13:44.490Z,1.60
2023-03-14T02:14:49.410Z,1.37
2023-03-14T02:15:52.457Z,1.85
2023-03-14T02:16:55.652Z,1.58
2023-03-14T02:18:00.129Z,1.30
2023-03-14T02:19:04.555Z,1.70
2023-03-14T02:20:37.040Z,1.20
2023-03-14T02:22:13.616Z,1.85
2023-03-14T02:23:21.993Z,1.15
2023-03-14T02:24:56.323Z,1.55
2023-03-14T02:26:07.476Z,1.20
2023-03-14T02:27:18.996Z,1.42
2023-03-14T02:28:22.815Z,2.55
2023-03-14T02:29:26.483Z,1.92
2023-03-14T02:30:33.100Z,1.30
2023-03-14T02:31:36.614Z,1.67
2023-03-14T02:32:42.996Z,1.67
2023-03-14T02:33:45.953Z,1.15
2023-03-14T02:34:53.895Z,1.50
2023-03-14T02:36:01.498Z,0.93
2023-03-14T02:37:06.414Z,1.65
2023-03-14T02:38:42.324Z,1.10
2023-03-14T02:39:46.962Z,1.67
2023-03-14T02:40:50.194Z,1.23
2023-03-14T02:41:53.209Z,1.40
2023-03-14T02:42:56.558Z,1.50
2023-03-14T02:43:59.756Z,1.73
2023-03-14T02:45:22.672Z,1.27
2023-03-14T02:46:25.938Z,1.75
2023-03-14T02:47:32.053Z,1.70
2023-03-14T02:49:03.212Z,1.52
2023-03-14T02:50:15.471Z,1.48
2023-03-14T02:51:19.145Z,1.75
2023-03-14T02:52:22.126Z,1.58
2023-03-14T02:53:32.700Z,1.77
2023-03-14T02:54:35.699Z,2.50
2023-03-14T02:55:38.662Z,1.52
2023-03-14T02:56:41.689Z,1.90
2023-03-14T02:57:44.655Z,1.62
2023-03-14T02:58:49.188Z,1.40
2023-03-14T02:59:52.078Z,1.40
2023-03-14T03:00:55.483Z,2.17
2023-03-14T03:02:00.828Z,1.20
2023-03-14T03:03:03.931Z,1.20
2023-03-14T03:04:06.857Z,1.33
2023-03-14T03:05:10.016Z,2.03
2023-03-14T03:06:13.161Z,1.40
2023-03-14T03:07:16.469Z,1.15
2023-03-14T03:08:23.086Z,1.48
2023-03-14T03:09:26.227Z,1.52
2023-03-14T03:10:30.020Z,1.77
2023-03-14T03:11:33.071Z,1.52
2023-03-14T03:12:36.007Z,1.92
2023-03-14T03:13:38.880Z,1.83
2023-03-14T03:14:41.785Z,1.40
2023-03-14T03:15:45.537Z,1.42
2023-03-14T03:16:48.573Z,1.92
2023-03-14T03:17:51.547Z,1.48
2023-03-14T03:18:54.769Z,1.60
2023-03-14T03:19:58.133Z,1.95
2023-03-14T03:21:02.710Z,1.58
2023-03-14T03:22:05.822Z,1.33
2023-03-14T03:23:08.766Z,1.15
2023-03-14T03:24:11.783Z,1.30
2023-03-14T03:25:14.869Z,1.75
2023-03-14T03:26:18.189Z,1.65
2023-03-14T03:27:21.586Z,1.45
2023-03-14T03:28:24.812Z,1.98
2023-03-14T03:29:27.735Z,1.50
2023-03-14T03:30:30.650Z,1.48
2023-03-14T03:31:33.878Z,2.22
2023-03-14T03:32:36.989Z,1.65
2023-03-14T03:33:40.542Z,1.20
2023-03-14T03:34:43.438Z,1.58
2023-03-14T03:35:49.062Z,1.42
2023-03-14T03:36:52.356Z,1.45
2023-03-14T03:37:55.636Z,2.03
2023-03-14T03:38:58.657Z,1.62
2023-03-14T03:40:02.060Z,2.25
2023-03-14T03:41:07.263Z,1.65
2023-03-14T03:42:11.054Z,1.42
2023-03-14T03:43:14.245Z,1.90
2023-03-14T03:44:17.173Z,1.62
2023-03-14T03:45:20.112Z,2.30
2023-03-14T03:46:23.771Z,1.02
2023-03-14T03:47:27.689Z,1.80
2023-03-14T03:48:31.613Z,1.48
2023-03-14T03:49:34.626Z,1.40
2023-03-14T03:50:37.836Z,2.12
2023-03-14T03:51:41.611Z,1.40
2023-03-14T03:52:44.710Z,1.73
2023-03-14T03:53:47.745Z,1.70
2023-03-14T03:54:50.659Z,1.95
2023-03-14T03:55:53.619Z,1.42
2023-03-14T03:56:56.631Z,1.70
2023-03-14T03:57:59.503Z,1.30
2023-03-14T03:59:03.699Z,2.30
2023-03-14T04:00:10.601Z,1.48
2023-03-14T04:01:16.279Z,1.08
2023-03-14T04:02:19.516Z,1.33
2023-03-14T04:03:22.669Z,1.62
2023-03-14T04:04:25.754Z,1.80
2023-03-14T04:05:29.153Z,1.65
2023-03-14T04:06:32.558Z,1.80
2023-03-14T04:07:36.057Z,1.58
2023-03-14T04:08:43.328Z,1.70
2023-03-14T04:09:46.381Z,1.83
2023-03-14T04:10:49.270Z,1.80
2023-03-14T04:11:52.355Z,2.05
2023-03-14T04:12:55.508Z,1.30
2023-03-14T04:13:58.379Z,2.10
2023-03-14T04:15:01.182Z,1.52
2023-03-14T04:16:04.234Z,1.50
2023-03-14T04:17:07.259Z,1.90
2023-03-14T04:18:10.197Z,1.33
2023-03-14T04:19:13.244Z,1.58
2023-03-14T04:20:16.197Z,1.95
2023-03-14T04:21:20.219Z,1.52
2023-03-14T04:22:23.246Z,1.30
2023-03-14T04:23:26.439Z,1.65
2023-03-14T04:24:29.421Z,1.60
2023-03-14T04:25:32.637Z,1.33
2023-03-14T04:26:35.658Z,1.65
2023-03-14T04:27:38.522Z,2.25
2023-03-14T04:28:43.180Z,1.48
2023-03-14T04:29:45.987Z,2.03
2023-03-14T04:30:48.945Z,1.45
2023-03-14T04:31:52.035Z,1.67
2023-03-14T04:32:54.972Z,1.35
2023-03-14T04:33:57.851Z,1.95
2023-03-14T04:35:00.788Z,1.80
2023-03-14T04:36:03.791Z,1.92
2023-03-14T04:37:07.090Z,1.85
2023-03-14T04:38:10.169Z,2.40
2023-03-14T04:39:13.175Z,1.30
2023-03-14T04:40:18.714Z,1.60
2023-03-14T04:41:22.471Z,2.17
2023-03-14T04:42:25.336Z,2.00
2023-03-14T04:43:28.890Z,1.80
2023-03-14T04:44:31.856Z,2.53
2023-03-14T04:45:34.666Z,1.52
2023-03-14T04:46:37.870Z,1.40
2023-03-14T04:47:40.803Z,1.67
2023-03-14T04:48:44.476Z,1.10
2023-03-14T04:49:47.375Z,1.80
2023-03-14T04:50:50.416Z,1.70
2023-03-14T04:51:54.013Z,2.10
2023-03-14T04:52:56.887Z,1.92
2023-03-14T04:53:59.760Z,1.90
2023-03-14T04:55:03.175Z,1.60
2023-03-14T04:56:06.819Z,2.08
2023-03-14T04:57:09.890Z,2.55
2023-03-14T04:58:12.962Z,2.03
2023-03-14T04:59:16.184Z,1.62
2023-03-14T05:00:19.899Z,1.95
2023-03-14T05:01:23.232Z,1.50
2023-03-14T05:02:26.268Z,1.70
2023-03-14T05:03:29.260Z,1.45
2023-03-14T05:04:34.182Z,1.27
2023-03-14T05:05:37.161Z,1.62
2023-03-14T05:06:40.983Z,1.50
2023-03-14T05:07:44.931Z,2.37
2023-03-14T05:08:51.019Z,1.40
2023-03-14T05:09:54.522Z,1.70
2023-03-14T05:10:58.865Z,1.60
2023-03-14T05:12:01.831Z,1.12
2023-03-14T05:13:05.263Z,1.67
2023-03-14T05:14:08.300Z,2.42
2023-03-14T05:15:11.560Z,1.20
2023-03-14T05:16:14.591Z,1.30
2023-03-14T05:17:17.956Z,1.55
2023-03-14T05:18:20.927Z,2.85
2023-03-14T05:19:23.787Z,1.62
2023-03-14T05:20:27.056Z,1.52
2023-03-14T05:21:29.902Z,1.50
2023-03-14T05:22:32.768Z,1.35
2023-03-14T05:23:35.759Z,2.17
2023-03-14T05:24:38.720Z,1.48
2023-03-14T05:25:43.985Z,1.65
2023-03-14T05:26:46.891Z,1.20
2023-03-14T05:27:49.767Z,1.33
2023-03-14T05:28:52.716Z,1.60
2023-03-14T05:29:55.628Z,1.62
2023-03-14T05:30:58.598Z,1.37
2023-03-14T05:32:01.659Z,1.52
2023-03-14T05:33:04.689Z,1.77
2023-03-14T05:34:07.658Z,1.50
2023-03-14T05:35:10.702Z,2.15
2023-03-14T05:36:13.821Z,1.58
2023-03-14T05:37:18.358Z,1.27
2023-03-14T05:38:24.539Z,1.45
2023-03-14T05:39:27.624Z,1.83
2023-03-14T05:40:30.644Z,1.77
2023-03-14T05:41:33.575Z,2.05
2023-03-14T05:42:36.488Z,1.50
2023-03-14T05:43:39.443Z,1.77
2023-03-14T05:44:42.331Z,2.45
2023-03-14T05:45:45.369Z,2.10
2023-03-14T05:46:48.429Z,1.80
2023-03-14T05:47:51.331Z,2.10
2023-03-14T05:49:01.144Z,1.90
2023-03-14T05:50:04.562Z,2.27
2023-03-14T05:51:09.595Z,1.70
2023-03-14T05:52:13.942Z,1.98
2023-03-14T05:53:17.042Z,1.58
2023-03-14T05:54:20.159Z,1.58
2023-03-14T05:55:23.370Z,2.05
2023-03-14T05:56:26.822Z,1.83
2023-03-14T05:57:29.850Z,1.80
2023-03-14T05:58:35.634Z,2.03
2023-03-14T05:59:38.958Z,1.83
2023-03-14T06:00:42.504Z,2.08
2023-03-14T06:01:45.973Z,2.20
2023-03-14T06:02:49.293Z,1.67
2023-03-14T06:03:52.393Z,1.77
2023-03-14T06:04:55.424Z,1.40
2023-03-14T06:05:58.856Z,2.03
2023-03-14T06:07:02.035Z,1.80
2023-03-14T06:08:05.688Z,1.85
2023-03-14T06:09:08.795Z,1.83
2023-03-14T06:10:12.225Z,1.85
2023-03-14T06:11:15.678Z,1.83
2023-03-14T06:12:18.881Z,1.48
2023-03-14T06:13:22.377Z,1.98
2023-03-14T06:14:25.465Z,1.62
2023-03-14T06:15:28.601Z,1.85
2023-03-14T06:16:33.502Z,1.37
2023-03-14T06:17:37.174Z,2.08
2023-03-14T06:18:42.343Z,1.30
2023-03-14T06:19:45.489Z,2.60
2023-03-14T06:20:48.813Z,2.10
2023-03-14T06:21:52.624Z,1.55
2023-03-14T06:22:55.692Z,1.42
2023-03-14T06:23:58.841Z,1.40
2023-03-14T06:25:01.967Z,1.23
2023-03-14T06:26:06.160Z,1.85
2023-03-14T06:27:09.404Z,1.40
2023-03-14T06:28:12.649Z,1.62
2023-03-14T06:29:15.911Z,1.30
2023-03-14T06:30:19.306Z,1.40
2023-03-14T06:31:22.413Z,2.05
2023-03-14T06:32:26.068Z,1.20
2023-03-14T06:33:29.526Z,1.73
2023-03-14T06:34:32.656Z,1.42
2023-03-14T06:35:35.963Z,1.85
2023-03-14T06:36:39.046Z,1.55
2023-03-14T06:37:43.082Z,1.90
2023-03-14T06:38:46.472Z,1.98
2023-03-14T06:39:49.675Z,1.80
2023-03-14T06:40:52.760Z,1.60
2023-03-14T06:41:55.954Z,1.67
2023-03-14T06:42:59.097Z,1.10
2023-03-14T06:44:02.175Z,1.80
2023-03-14T06:45:06.081Z,1.25
2023-03-14T06:46:09.397Z,1.80
2023-03-14T06:47:12.706Z,1.25
2023-03-14T06:48:16.546Z,2.30
2023-03-14T06:49:19.720Z,1.90
2023-03-14T06:50:24.245Z,1.98
2023-03-14T06:51:27.475Z,1.60
2023-03-14T06:52:30.486Z,1.40
2023-03-14T06:53:33.713Z,1.70
2023-03-14T06:54:37.003Z,1.20
2023-03-14T06:55:40.419Z,2.08
2023-03-14T06:56:43.522Z,1.83
2023-03-14T06:57:46.729Z,1.80
2023-03-14T06:58:50.546Z,1.67
2023-03-14T06:59:53.706Z,2.15
2023-03-14T07:00:58.662Z,1.90
2023-03-14T07:02:01.849Z,1.87
2023-03-14T07:03:04.994Z,1.33
2023-03-14T07:04:08.456Z,1.50
2023-03-14T07:05:11.826Z,1.17
2023-03-14T07:06:15.337Z,1.40
2023-03-14T07:07:18.364Z,2.83
2023-03-14T07:08:23.024Z,1.40
2023-03-14T07:09:26.498Z,1.62
2023-03-14T07:10:29.898Z,1.58
2023-03-14T07:11:33.342Z,3.33
2023-03-14T07:12:37.530Z,2.05
2023-03-14T07:13:41.436Z,1.30
2023-03-14T07:14:44.635Z,1.92
2023-03-14T07:15:47.908Z,1.02
2023-03-14T07:16:51.326Z,1.58
2023-03-14T07:17:54.486Z,1.62
2023-03-14T07:18:57.708Z,1.80
2023-03-14T07:20:07.460Z,1.92
2023-03-14T07:21:12.494Z,1.30
2023-03-14T07:22:15.829Z,1.98
2023-03-14T07:23:19.068Z,1.45
2023-03-14T07:24:22.327Z,2.10
2023-03-14T07:25:25.531Z,1.80
2023-03-14T07:26:28.783Z,2.40
2023-03-14T07:27:31.917Z,1.65
2023-03-14T07:28:36.219Z,1.35
2023-03-14T07:29:39.397Z,1.50
2023-03-14T07:30:42.610Z,1.52
2023-03-14T07:31:45.741Z,1.62
2023-03-14T07:32:49.618Z,1.73
2023-03-14T07:33:53.021Z,1.52
2023-03-14T07:34:56.484Z,1.73
2023-03-14T07:35:59.949Z,1.62
2023-03-14T07:37:03.142Z,1.77
2023-03-14T07:38:06.238Z,1.92
2023-03-14T07:39:09.548Z,1.55
2023-03-14T07:40:16.372Z,1.80
2023-03-14T07:41:19.854Z,2.47
2023-03-14T07:42:23.065Z,2.15
2023-03-14T07:43:26.182Z,1.37
2023-03-14T07:44:29.633Z,1.92
2023-03-14T07:45:32.662Z,1.37
2023-03-14T07:46:35.993Z,2.05
2023-03-14T07:47:39.673Z,2.95
2023-03-14T07:48:43.129Z,1.58
2023-03-14T07:49:46.182Z,1.52
2023-03-14T07:50:53.297Z,1.85
2023-03-14T07:51:56.472Z,1.65
2023-03-14T07:52:59.702Z,1.45
2023-03-14T07:54:03.008Z,1.40
2023-03-14T07:55:06.965Z,2.08
2023-03-14T07:56:10.448Z,1.60
2023-03-14T07:57:13.609Z,1.58
2023-03-14T07:58:18.481Z,2.00
2023-03-14T07:59:22.119Z,1.65
2023-03-14T08:00:25.198Z,1.35
2023-03-14T08:01:28.454Z,1.70
2023-03-14T08:02:31.525Z,1.65
2023-03-14T08:03:34.782Z,1.65
2023-03-14T08:04:38.115Z,1.85
2023-03-14T08:05:42.128Z,1.48
2023-03-14T08:06:45.366Z,1.83
2023-03-14T08:07:48.535Z,1.73
2023-03-14T08:08:52.273Z,2.80
2023-03-14T08:09:55.920Z,1.95
2023-03-14T08:11:09.768Z,1.92
2023-03-14T08:12:13.045Z,2.25
2023-03-14T08:13:16.436Z,1.55
2023-03-14T08:14:19.473Z,1.60
2023-03-14T08:15:23.039Z,2.03
2023-03-14T08:16:26.115Z,1.45
2023-03-14T08:17:29.220Z,1.27
2023-03-14T08:18:32.671Z,1.87
2023-03-14T08:19:35.899Z,1.35
2023-03-14T08:20:39.041Z,1.37
2023-03-14T08:21:42.131Z,1.70
2023-03-14T08:22:45.677Z,2.03
2023-03-14T08:23:49.088Z,1.60
2023-03-14T08:24:52.377Z,1.67
2023-03-14T08:25:55.326Z,1.45
2023-03-14T08:26:58.680Z,2.42
2023-03-14T08:28:01.682Z,2.00
2023-03-14T08:29:05.871Z,2.12
2023-03-14T08:30:12.375Z,2.20
2023-03-14T08:31:17.070Z,2.08
2023-03-14T08:32:21.561Z,1.48
2023-03-14T08:33:26.326Z,2.22
2023-03-14T08:34:29.311Z,1.62
2023-03-14T08:35:32.498Z,1.87
2023-03-14T08:36:35.812Z,1.80
2023-03-14T08:37:39.294Z,1.90
2023-03-14T08:38:43.899Z,1.67
2023-03-14T08:39:47.171Z,1.50
2023-03-14T08:40:51.402Z,1.50
2023-03-14T08:41:54.693Z,1.75
2023-03-14T08:42:57.807Z,2.20
2023-03-14T08:44:00.988Z,1.95
2023-03-14T08:45:05.079Z,1.80
2023-03-14T08:46:08.311Z,1.87
2023-03-14T08:47:11.557Z,1.95
2023-03-14T08:48:14.890Z,1.58
2023-03-14T08:49:18.393Z,1.25
2023-03-14T08:50:24.603Z,1.55
2023-03-14T08:51:27.889Z,2.75
2023-03-14T08:52:32.188Z,2.87
2023-03-14T08:53:35.594Z,1.67
2023-03-14T08:54:38.834Z,1.75
2023-03-14T08:55:42.015Z,1.58
2023-03-14T08:56:45.282Z,1.83
2023-03-14T08:57:48.612Z,1.73
2023-03-14T08:58:54.221Z,1.60
2023-03-14T08:59:58.827Z,1.60
2023-03-14T09:01:01.963Z,1.80
2023-03-14T09:02:05.316Z,1.70
2023-03-14T09:03:08.994Z,1.65
2023-03-14T09:04:12.309Z,1.33
2023-03-14T09:05:15.718Z,1.60
2023-03-14T09:06:19.338Z,1.27
2023-03-14T09:07:22.477Z,1.87
2023-03-14T09:08:25.810Z,2.10
2023-03-14T09:09:29.075Z,1.73
2023-03-14T09:10:32.182Z,1.92
2023-03-14T09:11:35.347Z,2.22
2023-03-14T09:12:38.460Z,1.73
2023-03-14T09:13:42.489Z,2.12
2023-03-14T09:14:45.666Z,1.37
2023-03-14T09:15:55.322Z,2.15
2023-03-14T09:16:58.463Z,1.27
2023-03-14T09:18:02.073Z,1.48
2023-03-14T09:19:05.190Z,2.03
2023-03-14T09:20:10.415Z,2.05
2023-03-14T09:21:14.663Z,1.62
2023-03-14T09:22:18.994Z,1.92
2023-03-14T09:23:22.509Z,1.42
2023-03-14T09:24:25.681Z,1.40
2023-03-14T09:25:28.807Z,1.73
2023-03-14T09:26:32.130Z,1.37
2023-03-14T09:27:35.403Z,1.50
2023-03-14T09:28:38.690Z,1.40
2023-03-14T09:29:42.049Z,1.75
2023-03-14T09:30:45.210Z,1.60
2023-03-14T09:31:48.304Z,1.67
2023-03-14T09:32:51.613Z,1.80
2023-03-14T09:33:54.625Z,1.30
2023-03-14T09:34:57.754Z,1.65
2023-03-14T09:36:01.349Z,1.37
2023-03-14T09:37:04.585Z,1.60
2023-03-14T09:38:07.821Z,1.30
2023-03-14T09:39:12.092Z,2.03
2023-03-14T09:40:18.885Z,1.33
2023-03-14T09:41:34.658Z,2.00
2023-03-14T09:42:40.232Z,1.17
2023-03-14T09:43:45.479Z,1.62
2023-03-14T09:45:08.349Z,1.60
2023-03-14T09:46:13.463Z,1.30
2023-03-14T09:47:21.408Z,1.55
2023-03-14T09:48:30.612Z,1.30
2023-03-14T09:49:38.172Z,1.50
2023-03-14T09:50:50.267Z,1.60
2023-03-14T09:51:56.633Z,1.37
2023-03-14T09:53:08.289Z,1.20
2023-03-14T09:54:34.191Z,1.45
2023-03-14T09:55:37.892Z,1.80
2023-03-14T09:56:41.418Z,1.60
2023-03-14T09:57:49.787Z,1.75
2023-03-14T09:59:02.412Z,1.10
2023-03-14T10:00:15.658Z,1.08
2023-03-14T10:01:26.754Z,0.60
2023-03-14T10:02:36.933Z,0.85
2023-03-14T10:03:40.682Z,0.77
2023-03-14T10:04:48.361Z,0.75
2023-03-14T10:05:52.020Z,0.60
2023-03-14T10:06:55.346Z,0.68
2023-03-14T10:07:58.729Z,0.75
2023-03-14T10:09:02.522Z,0.80
2023-03-14T10:10:14.215Z,0.62
2023-03-14T10:11:19.338Z,0.62
2023-03-14T10:12:33.347Z,0.98
2023-03-14T10:13:36.438Z,0.70
2023-03-14T10:14:51.092Z,0.57
2023-03-14T10:15:56.822Z,0.70
2023-03-14T10:17:08.280Z,1.30
2023-03-14T10:18:14.069Z,0.80
2023-03-14T10:19:18.564Z,0.45
2023-03-14T10:20:35.081Z,1.30
2023-03-14T10:22:00.080Z,0.62
2023-03-14T10:23:20.248Z,0.90
2023-03-14T10:24:27.436Z,1.12
2023-03-14T10:25:33.326Z,0.80
2023-03-14T10:26:37.885Z,0.70
2023-03-14T10:27:41.027Z,0.70
2023-03-14T10:28:54.033Z,0.85
2023-03-14T10:30:02.981Z,0.82
2023-03-14T10:31:07.988Z,0.70
2023-03-14T10:32:21.363Z,1.20
2023-03-14T10:33:28.797Z,0.62
2023-03-14T10:34:38.400Z,0.80
2023-03-14T10:35:41.741Z,0.65
2023-03-14T10:36:45.178Z,0.85
2023-03-14T10:38:02.938Z,0.57
2023-03-14T10:39:23.554Z,0.90
2023-03-14T10:40:47.533Z,0.60
2023-03-14T10:41:54.637Z,0.60
2023-03-14T10:43:00.547Z,0.68
2023-03-14T10:44:06.824Z,0.93
2023-03-14T10:45:28.774Z,0.70
2023-03-14T10:46:35.117Z,0.70
2023-03-14T10:47:51.206Z,1.15
2023-03-14T10:48:55.512Z,0.80
2023-03-14T10:50:16.035Z,0.50
2023-03-14T10:51:18.967Z,0.80
2023-03-14T10:52:31.018Z,0.62
2023-03-14T10:53:43.858Z,0.80
2023-03-14T10:55:13.460Z,0.65
2023-03-14T10:56:21.604Z,0.50
2023-03-14T10:57:25.491Z,1.02
2023-03-14T10:58:33.042Z,0.85
2023-03-14T10:59:42.872Z,0.98
2023-03-14T11:01:13.978Z,0.73
2023-03-14T11:02:38.461Z,0.80
2023-03-14T11:03:50.012Z,1.23
2023-03-14T11:05:12.883Z,0.82
2023-03-14T11:06:41.646Z,0.90
2023-03-14T11:07:46.355Z,0.60
2023-03-14T11:09:20.073Z,0.90
2023-03-14T11:10:30.742Z,0.73
2023-03-14T11:11:33.962Z,0.40
2023-03-14T11:12:52.690Z,0.80
2023-03-14T11:14:13.755Z,0.55
2023-03-14T11:15:35.721Z,0.55
2023-03-14T11:16:53.938Z,0.70
2023-03-14T11:18:34.689Z,0.50
2023-03-14T11:20:54.158Z,0.82
2023-03-14T11:22:42.131Z,0.75
2023-03-14T11:24:06.396Z,0.88
2023-03-14T11:25:27.389Z,0.65
2023-03-14T11:26:38.945Z,0.55
2023-03-14T11:27:57.000Z,0.55
2023-03-14T11:29:20.052Z,0.73
2023-03-14T11:30:40.816Z,0.68
2023-03-14T11:31:46.134Z,0.88
2023-03-14T11:33:08.942Z,0.75
2023-03-14T11:34:21.460Z,0.88
2023-03-14T11:35:32.545Z,0.62
2023-03-14T11:37:12.940Z,0.70
2023-03-14T11:38:34.832Z,0.73
2023-03-14T11:39:42.364Z,1.10
2023-03-14T11:40:48.926Z,0.85
2023-03-14T11:42:01.322Z,0.62
2023-03-14T11:43:20.612Z,0.60
2023-03-14T11:44:29.310Z,0.90
2023-03-14T11:45:38.791Z,0.73
2023-03-14T11:46:54.811Z,0.85
2023-03-14T11:48:24.415Z,0.68
2023-03-14T11:49:40.657Z,1.77
2023-03-14T11:50:45.887Z,0.57
2023-03-14T11:51:52.077Z,0.70
2023-03-14T11:53:04.000Z,0.45
2023-03-14T11:54:46.998Z,0.88
2023-03-14T11:55:51.354Z,1.08
2023-03-14T11:57:02.380Z,0.90
2023-03-14T11:58:13.018Z,0.57
2023-03-14T12:00:50.598Z,0.80
2023-03-14T12:02:05.584Z,0.40
2023-03-14T12:03:27.727Z,0.50
2023-03-14T12:04:44.877Z,0.55
2023-03-14T12:06:21.879Z,0.50
2023-03-14T12:07:39.769Z,0.70
2023-03-14T12:08:52.339Z,0.68
2023-03-14T12:09:56.481Z,0.60
2023-03-14T12:11:11.741Z,0.70
2023-03-14T12:12:21.298Z,0.73
2023-03-14T12:13:31.405Z,0.50
2023-03-14T12:14:39.164Z,0.93
2023-03-14T12:15:49.333Z,1.15
2023-03-14T12:16:59.390Z,0.90
2023-03-14T12:18:02.716Z,1.02
2023-03-14T12:19:22.049Z,0.98
2023-03-14T12:20:27.778Z,0.70
2023-03-14T12:21:49.821Z,0.60
2023-03-14T12:23:03.291Z,0.35
2023-03-14T12:24:23.503Z,0.88
2023-03-14T12:25:29.967Z,0.47
2023-03-14T12:26:50.222Z,0.77
2023-03-14T12:28:07.007Z,0.47
2023-03-14T12:29:17.524Z,0.70
2023-03-14T12:30:33.828Z,0.68
2023-03-14T12:31:45.280Z,1.08
2023-03-14T12:33:11.692Z,0.62
2023-03-14T12:34:14.848Z,0.73
2023-03-14T12:35:44.154Z,1.70
2023-03-14T12:36:50.804Z,1.00
2023-03-14T12:37:56.936Z,0.70
2023-03-14T12:39:12.171Z,0.80
2023-03-14T12:40:40.952Z,0.80
2023-03-14T12:41:53.835Z,0.52
2023-03-14T12:43:01.367Z,0.80
2023-03-14T12:44:44.877Z,0.60
2023-03-14T12:46:19.766Z,0.57
2023-03-14T12:47:22.848Z,0.50
2023-03-14T12:48:28.430Z,0.60
2023-03-14T12:49:33.345Z,0.70
2023-03-14T12:50:46.615Z,0.65
2023-03-14T12:51:49.613Z,3.22
2023-03-14T12:52:52.722Z,2.25
2023-03-14T12:54:16.497Z,1.20
2023-03-14T12:55:35.622Z,3.00
2023-03-14T12:56:50.572Z,1.33
2023-03-14T12:58:02.028Z,1.40
2023-03-14T12:59:20.328Z,1.10
2023-03-14T13:00:30.958Z,1.08
2023-03-14T13:01:35.499Z,0.93
2023-03-14T13:02:45.741Z,0.80
2023-03-14T13:03:54.699Z,0.82
2023-03-14T13:05:12.313Z,1.55
2023-03-14T13:06:47.664Z,0.57
2023-03-14T13:07:50.578Z,0.68
2023-03-14T13:08:57.990Z,0.70
2023-03-14T13:10:18.140Z,1.23
2023-03-14T13:11:22.285Z,0.62
2023-03-14T13:12:31.448Z,0.90
2023-03-14T13:13:38.753Z,1.10
2023-03-14T13:14:52.707Z,0.90
2023-03-14T13:16:01.936Z,0.60
2023-03-14T13:17:19.690Z,0.77
2023-03-14T13:18:36.339Z,1.10
2023-03-14T13:19:39.868Z,0.88
2023-03-14T13:20:52.940Z,0.90
2023-03-14T13:22:15.664Z,1.10
2023-03-14T13:23:28.650Z,0.80
2023-03-14T13:24:36.032Z,0.82
2023-03-14T13:25:39.188Z,1.10
2023-03-14T13:26:44.428Z,0.52
2023-03-14T13:27:48.284Z,0.82
2023-03-14T13:28:52.148Z,1.00
2023-03-14T13:29:55.455Z,0.95
2023-03-14T13:31:04.244Z,0.80
2023-03-14T13:32:27.233Z,0.70
2023-03-14T13:33:30.692Z,1.00
2023-03-14T13:34:36.083Z,1.02
2023-03-14T13:35:48.980Z,1.10
2023-03-14T13:36:54.776Z,0.85
2023-03-14T13:38:16.078Z,0.90
2023-03-14T13:39:23.467Z,0.70
2023-03-14T13:40:34.552Z,0.80
2023-03-14T13:41:38.294Z,0.60
2023-03-14T13:42:41.305Z,1.33
2023-03-14T13:43:45.612Z,0.73
2023-03-14T13:44:49.159Z,0.90
2023-03-14T13:45:58.115Z,0.80
2023-03-14T13:47:04.057Z,0.80
2023-03-14T13:48:13.756Z,0.70
2023-03-14T13:49:24.595Z,1.15
2023-03-14T13:51:34.395Z,0.88
2023-03-14T13:52:39.641Z,0.80
2023-03-14T13:53:51.375Z,0.90
2023-03-14T13:54:59.111Z,0.77
2023-03-14T13:56:05.422Z,0.70
2023-03-14T13:57:09.078Z,1.00
2023-03-14T13:58:21.971Z,0.70
2023-03-14T13:59:33.304Z,0.85
2023-03-14T14:00:36.961Z,0.90
2023-03-14T14:01:40.203Z,1.08
2023-03-14T14:02:43.363Z,0.90
2023-03-14T14:03:52.341Z,1.60
2023-03-14T14:04:57.607Z,0.73
2023-03-14T14:06:01.038Z,0.70
2023-03-14T14:07:10.814Z,0.90
2023-03-14T14:08:14.437Z,1.00
2023-03-14T14:09:40.448Z,1.10
2023-03-14T14:10:44.267Z,0.70
2023-03-14T14:12:11.396Z,0.98
2023-03-14T14:13:22.809Z,0.80
2023-03-14T14:14:42.554Z,0.73
2023-03-14T14:15:49.351Z,0.98
2023-03-14T14:16:53.749Z,0.65
2023-03-14T14:18:03.328Z,0.98
2023-03-14T14:19:08.886Z,0.82
2023-03-14T14:20:20.439Z,0.80
2023-03-14T14:21:24.649Z,0.65
2023-03-14T14:22:28.571Z,1.15
2023-03-14T14:23:33.038Z,0.75
2023-03-14T14:24:38.246Z,1.00
2023-03-14T14:25:41.518Z,0.93
2023-03-14T14:26:56.222Z,0.75
2023-03-14T14:27:59.448Z,1.27
2023-03-14T14:29:06.167Z,0.70
2023-03-14T14:30:21.215Z,0.85
2023-03-14T14:31:26.487Z,1.00
2023-03-14T14:32:37.889Z,1.00
2023-03-14T14:33:46.775Z,0.90
2023-03-14T14:34:55.865Z,0.80
2023-03-14T14:36:02.105Z,0.88
2023-03-14T14:37:05.429Z,1.10
2023-03-14T14:38:18.432Z,0.82
2023-03-14T14:39:25.846Z,0.77
2023-03-14T14:40:31.203Z,0.80
2023-03-14T14:41:37.443Z,0.90
2023-03-14T14:42:43.122Z,0.85
2023-03-14T14:43:47.891Z,0.95
2023-03-14T14:44:52.796Z,0.80
2023-03-14T14:46:00.252Z,0.90
2023-03-14T14:47:06.495Z,0.60
2023-03-14T14:48:14.923Z,0.62
2023-03-14T14:49:21.016Z,1.02
2023-03-14T14:50:36.498Z,0.80
2023-03-14T14:51:50.849Z,1.52
2023-03-14T14:52:59.261Z,0.82